This is the latest recevied weather packets stored in our database for station/object K5FEP. If no packets are shown the sender has not sent any weather packets the latest 1 day(s).
| Time | Temp. | Humidity | Pressure | Rain* | Wind** | Luminosity | Snow |
|---|---|---|---|---|---|---|---|
| 1778018745 | 26.67° C | 33% | 1011.7 hPa | 0 mm | 1.79 m/s, 125° | 222 W/m² | - |
| 1778018442 | 26.67° C | 34% | 1011.8 hPa | 0 mm | 0.89 m/s, 54° | 219 W/m² | - |
| 1778018141 | 26.67° C | 35% | 1011.8 hPa | 0 mm | 1.34 m/s, 80° | 191 W/m² | - |
| 1778017838 | 27.22° C | 33% | 1011.9 hPa | 0 mm | 1.34 m/s, 348° | 170 W/m² | - |
| 1778017536 | 27.22° C | 33% | 1011.8 hPa | 0 mm | 1.34 m/s, 44° | 298 W/m² | - |
| 1778017232 | 26.67° C | 35% | 1011.9 hPa | 0 mm | 1.34 m/s, 39° | 421 W/m² | - |
| 1778016930 | 26.67° C | 35% | 1011.8 hPa | 0 mm | 1.34 m/s, 52° | 328 W/m² | - |
| 1778016626 | 27.22° C | 33% | 1011.9 hPa | 0 mm | 2.24 m/s, 47° | 161 W/m² | - |
| 1778016323 | 27.78° C | 33% | 1011.8 hPa | 0 mm | 2.24 m/s, 54° | 351 W/m² | - |
| 1778016020 | 27.22° C | 32% | 1011.8 hPa | 0 mm | 2.24 m/s, 91° | 427 W/m² | - |
| 1778015717 | 26.67° C | 34% | 1011.8 hPa | 0 mm | 1.34 m/s, 310° | 456 W/m² | - |
| 1778015414 | 26.67° C | 34% | 1012 hPa | 0 mm | 0.89 m/s, 8° | 281 W/m² | - |
| 1778015110 | 26.67° C | 31% | 1012.2 hPa | 0 mm | 2.24 m/s, 70° | 224 W/m² | - |
| 1778014808 | 27.22° C | 31% | 1012 hPa | 0 mm | 4.02 m/s, 42° | 213 W/m² | - |
| 1778014506 | 27.78° C | 29% | 1011.7 hPa | 0 mm | 4.47 m/s, 91° | 332 W/m² | - |
| 1778014202 | 27.78° C | 32% | 1011.9 hPa | 0 mm | 1.34 m/s, 154° | 314 W/m² | - |
| 1778013900 | 27.78° C | 32% | 1012.3 hPa | 0 mm | 1.79 m/s, 344° | 571 W/m² | - |
| 1778013597 | 27.78° C | 30% | 1011.8 hPa | 0 mm | 4.92 m/s, 47° | 569 W/m² | - |
| 1778013293 | 28.33° C | 28% | 1012 hPa | 0 mm | 2.68 m/s, 93° | 594 W/m² | - |
| 1778012990 | 28.33° C | 29% | 1012.2 hPa | 0 mm | 1.34 m/s, 27° | 613 W/m² | - |
| 1778012687 | 28.33° C | 31% | 1012 hPa | 0 mm | 0.89 m/s, 257° | 632 W/m² | - |
| 1778012383 | 28.33° C | 31% | 1012 hPa | 0 mm | 0.45 m/s, 66° | 650 W/m² | - |
| 1778012080 | 28.33° C | 30% | 1012.2 hPa | 0 mm | 2.24 m/s, 305° | 669 W/m² | - |
| 1778011778 | 28.33° C | 31% | 1012.2 hPa | 0 mm | 1.34 m/s, 353° | 696 W/m² | - |
| 1778011475 | 27.78° C | 28% | 1012.3 hPa | 0 mm | 2.68 m/s, 153° | 729 W/m² | - |
* Rain latest hour (hover to see other rain measurements)
** Current wind speed in m/s (hover to see current wind gust speed)